sensor_id;sensor_type;location;lat;lon;timestamp;pressure;altitude;pressure_sealevel;temperature;humidity
22647;BME280;11490;42.726;23.268;2023-10-31T00:02:16;95454.78;;;10.80;93.54
22647;BME280;11490;42.726;23.268;2023-10-31T00:04:41;95456.41;;;10.81;94.68
22647;BME280;11490;42.726;23.268;2023-10-31T00:07:06;95445.88;;;11.26;91.67
22647;BME280;11490;42.726;23.268;2023-10-31T00:09:32;95422.13;;;11.13;90.53
22647;BME280;11490;42.726;23.268;2023-10-31T00:11:58;95448.97;;;11.06;92.98
22647;BME280;11490;42.726;23.268;2023-10-31T00:14:24;95428.22;;;10.50;95.10
22647;BME280;11490;42.726;23.268;2023-10-31T00:16:49;95427.41;;;10.73;95.27
22647;BME280;11490;42.726;23.268;2023-10-31T00:19:14;95425.16;;;11.05;92.61
22647;BME280;11490;42.726;23.268;2023-10-31T00:21:40;95435.56;;;11.30;91.60
22647;BME280;11490;42.726;23.268;2023-10-31T00:24:06;95423.66;;;11.49;90.26
22647;BME280;11490;42.726;23.268;2023-10-31T00:26:31;95422.22;;;11.30;91.22
22647;BME280;11490;42.726;23.268;2023-10-31T00:28:57;95421.44;;;11.46;90.88
22647;BME280;11490;42.726;23.268;2023-10-31T00:31:22;95415.78;;;10.32;95.14
22647;BME280;11490;42.726;23.268;2023-10-31T00:33:48;95399.22;;;10.30;96.65
22647;BME280;11490;42.726;23.268;2023-10-31T00:36:13;95419.38;;;10.85;95.28
22647;BME280;11490;42.726;23.268;2023-10-31T00:38:38;95420.41;;;11.07;92.23
22647;BME280;11490;42.726;23.268;2023-10-31T00:41:04;95416.03;;;10.66;94.75
22647;BME280;11490;42.726;23.268;2023-10-31T00:43:29;95407.00;;;10.20;97.37
22647;BME280;11490;42.726;23.268;2023-10-31T00:45:54;95408.06;;;10.01;98.62
22647;BME280;11490;42.726;23.268;2023-10-31T00:48:20;95400.28;;;10.53;97.21
22647;BME280;11490;42.726;23.268;2023-10-31T00:50:46;95402.09;;;10.87;94.60
22647;BME280;11490;42.726;23.268;2023-10-31T00:53:11;95407.94;;;10.37;96.70
22647;BME280;11490;42.726;23.268;2023-10-31T00:55:38;95407.97;;;10.08;98.95
22647;BME280;11490;42.726;23.268;2023-10-31T00:58:04;95399.69;;;10.27;98.88
22647;BME280;11490;42.726;23.268;2023-10-31T01:00:29;95395.72;;;10.53;98.27
22647;BME280;11490;42.726;23.268;2023-10-31T01:02:55;95401.84;;;11.00;94.74
22647;BME280;11490;42.726;23.268;2023-10-31T01:05:20;95388.31;;;10.78;93.50
22647;BME280;11490;42.726;23.268;2023-10-31T01:07:46;95390.47;;;10.93;94.08
22647;BME280;11490;42.726;23.268;2023-10-31T01:10:11;95391.66;;;10.86;92.79
22647;BME280;11490;42.726;23.268;2023-10-31T01:12:37;95397.94;;;10.91;93.83
22647;BME280;11490;42.726;23.268;2023-10-31T01:15:02;95388.78;;;11.15;92.07
22647;BME280;11490;42.726;23.268;2023-10-31T01:17:28;95382.91;;;11.13;90.18
22647;BME280;11490;42.726;23.268;2023-10-31T01:19:53;95390.28;;;11.23;89.37
22647;BME280;11490;42.726;23.268;2023-10-31T01:22:19;95385.88;;;10.30;93.72
22647;BME280;11490;42.726;23.268;2023-10-31T01:24:44;95379.03;;;10.46;95.97
22647;BME280;11490;42.726;23.268;2023-10-31T01:27:09;95381.56;;;10.88;92.78
22647;BME280;11490;42.726;23.268;2023-10-31T01:29:35;95378.22;;;10.69;93.16
22647;BME280;11490;42.726;23.268;2023-10-31T01:32:00;95366.16;;;10.78;92.90
22647;BME280;11490;42.726;23.268;2023-10-31T01:34:25;95364.16;;;10.97;91.18
22647;BME280;11490;42.726;23.268;2023-10-31T01:36:51;95372.41;;;10.72;92.32
22647;BME280;11490;42.726;23.268;2023-10-31T01:39:16;95379.38;;;10.73;93.01
22647;BME280;11490;42.726;23.268;2023-10-31T01:41:42;95370.75;;;10.94;91.12
22647;BME280;11490;42.726;23.268;2023-10-31T01:44:08;95379.78;;;11.05;90.54
22647;BME280;11490;42.726;23.268;2023-10-31T01:46:34;95375.97;;;11.01;88.67
22647;BME280;11490;42.726;23.268;2023-10-31T01:48:59;95372.34;;;10.44;92.08
22647;BME280;11490;42.726;23.268;2023-10-31T01:51:26;95371.75;;;10.65;91.50
22647;BME280;11490;42.726;23.268;2023-10-31T01:53:53;95375.81;;;10.32;93.89
22647;BME280;11490;42.726;23.268;2023-10-31T01:56:20;95373.78;;;10.16;95.75
22647;BME280;11490;42.726;23.268;2023-10-31T01:58:47;95370.94;;;9.64;96.92
22647;BME280;11490;42.726;23.268;2023-10-31T02:01:13;95368.47;;;10.16;96.01
22647;BME280;11490;42.726;23.268;2023-10-31T02:03:39;95352.97;;;10.36;93.08
22647;BME280;11490;42.726;23.268;2023-10-31T02:06:04;95365.13;;;10.32;92.48
22647;BME280;11490;42.726;23.268;2023-10-31T02:08:30;95373.63;;;10.29;94.18
22647;BME280;11490;42.726;23.268;2023-10-31T02:10:56;95366.66;;;10.52;91.63
22647;BME280;11490;42.726;23.268;2023-10-31T02:13:22;95359.38;;;9.71;93.91
22647;BME280;11490;42.726;23.268;2023-10-31T02:15:47;95362.72;;;9.66;97.21
22647;BME280;11490;42.726;23.268;2023-10-31T02:18:13;95349.47;;;10.13;94.08
22647;BME280;11490;42.726;23.268;2023-10-31T02:20:38;95361.19;;;9.58;95.28
22647;BME280;11490;42.726;23.268;2023-10-31T02:23:04;95355.41;;;9.20;100.00
22647;BME280;11490;42.726;23.268;2023-10-31T02:25:30;95353.59;;;9.74;97.64
22647;BME280;11490;42.726;23.268;2023-10-31T02:27:55;95347.22;;;9.86;96.74
22647;BME280;11490;42.726;23.268;2023-10-31T02:30:21;95353.03;;;10.07;93.79
22647;BME280;11490;42.726;23.268;2023-10-31T02:32:46;95359.28;;;10.00;95.03
22647;BME280;11490;42.726;23.268;2023-10-31T02:35:12;95359.66;;;10.04;95.45
22647;BME280;11490;42.726;23.268;2023-10-31T02:37:37;95354.00;;;10.24;94.09
22647;BME280;11490;42.726;23.268;2023-10-31T02:40:03;95355.25;;;9.98;93.37
22647;BME280;11490;42.726;23.268;2023-10-31T02:42:29;95354.06;;;9.94;94.65
22647;BME280;11490;42.726;23.268;2023-10-31T02:44:54;95344.97;;;10.13;93.03
22647;BME280;11490;42.726;23.268;2023-10-31T02:47:19;95358.41;;;10.18;91.48
22647;BME280;11490;42.726;23.268;2023-10-31T02:49:45;95358.72;;;10.10;93.14
22647;BME280;11490;42.726;23.268;2023-10-31T02:52:10;95353.69;;;10.20;91.46
22647;BME280;11490;42.726;23.268;2023-10-31T02:54:36;95374.31;;;9.72;94.65
22647;BME280;11490;42.726;23.268;2023-10-31T02:57:02;95365.81;;;10.04;92.87
22647;BME280;11490;42.726;23.268;2023-10-31T02:59:27;95363.13;;;10.16;91.87
22647;BME280;11490;42.726;23.268;2023-10-31T03:01:53;95358.38;;;8.94;96.22
22647;BME280;11490;42.726;23.268;2023-10-31T03:04:18;95357.44;;;9.36;96.67
22647;BME280;11490;42.726;23.268;2023-10-31T03:06:44;95362.19;;;9.46;94.24
22647;BME280;11490;42.726;23.268;2023-10-31T03:09:10;95363.41;;;8.83;97.65
22647;BME280;11490;42.726;23.268;2023-10-31T03:11:35;95363.63;;;9.30;95.98
22647;BME280;11490;42.726;23.268;2023-10-31T03:14:01;95354.38;;;9.03;96.35
22647;BME280;11490;42.726;23.268;2023-10-31T03:16:26;95352.34;;;8.50;99.58
22647;BME280;11490;42.726;23.268;2023-10-31T03:18:52;95347.03;;;9.16;98.37
22647;BME280;11490;42.726;23.268;2023-10-31T03:21:17;95348.38;;;9.07;95.91
22647;BME280;11490;42.726;23.268;2023-10-31T03:23:46;95367.59;;;9.09;98.92
22647;BME280;11490;42.726;23.268;2023-10-31T03:26:13;95319.25;;;9.42;96.77
22647;BME280;11490;42.726;23.268;2023-10-31T03:28:38;95321.75;;;8.77;99.55
22647;BME280;11490;42.726;23.268;2023-10-31T03:31:03;95326.03;;;9.26;100.00
22647;BME280;11490;42.726;23.268;2023-10-31T03:33:29;95348.03;;;8.67;100.00
22647;BME280;11490;42.726;23.268;2023-10-31T03:35:55;95336.44;;;9.28;98.90
22647;BME280;11490;42.726;23.268;2023-10-31T03:38:20;95334.94;;;9.32;99.41
22647;BME280;11490;42.726;23.268;2023-10-31T03:40:45;95334.94;;;9.32;97.93
22647;BME280;11490;42.726;23.268;2023-10-31T03:43:11;95335.81;;;8.66;100.00
22647;BME280;11490;42.726;23.268;2023-10-31T03:45:36;95341.97;;;8.97;100.00
22647;BME280;11490;42.726;23.268;2023-10-31T03:48:02;95333.91;;;9.33;99.48
22647;BME280;11490;42.726;23.268;2023-10-31T03:50:27;95349.47;;;9.48;98.51
22647;BME280;11490;42.726;23.268;2023-10-31T03:52:53;95351.34;;;9.59;98.25
22647;BME280;11490;42.726;23.268;2023-10-31T03:55:19;95343.44;;;9.41;95.88
22647;BME280;11490;42.726;23.268;2023-10-31T03:57:44;95338.28;;;8.98;100.00
22647;BME280;11490;42.726;23.268;2023-10-31T04:00:10;95329.34;;;9.22;97.38
22647;BME280;11490;42.726;23.268;2023-10-31T04:02:37;95332.84;;;8.74;99.90
22647;BME280;11490;42.726;23.268;2023-10-31T04:05:02;95315.28;;;8.73;100.00
22647;BME280;11490;42.726;23.268;2023-10-31T04:07:28;95328.78;;;8.72;100.00
22647;BME280;11490;42.726;23.268;2023-10-31T04:09:53;95324.09;;;8.85;100.00
22647;BME280;11490;42.726;23.268;2023-10-31T04:12:19;95313.13;;;9.12;99.29
22647;BME280;11490;42.726;23.268;2023-10-31T04:14:45;95328.41;;;8.86;99.89
22647;BME280;11490;42.726;23.268;2023-10-31T04:17:10;95320.44;;;9.16;99.22
22647;BME280;11490;42.726;23.268;2023-10-31T04:19:36;95302.34;;;9.07;100.00
22647;BME280;11490;42.726;23.268;2023-10-31T04:22:02;95317.06;;;8.91;100.00
22647;BME280;11490;42.726;23.268;2023-10-31T04:24:28;95302.66;;;9.29;98.82
22647;BME280;11490;42.726;23.268;2023-10-31T04:26:53;95308.00;;;9.40;98.85
22647;BME280;11490;42.726;23.268;2023-10-31T04:29:19;95320.13;;;8.76;100.00
22647;BME280;11490;42.726;23.268;2023-10-31T04:31:45;95298.06;;;9.06;100.00
22647;BME280;11490;42.726;23.268;2023-10-31T04:34:10;95288.78;;;8.97;99.54
22647;BME280;11490;42.726;23.268;2023-10-31T04:36:36;95295.13;;;8.96;100.00
22647;BME280;11490;42.726;23.268;2023-10-31T04:39:01;95320.50;;;9.40;99.33
22647;BME280;11490;42.726;23.268;2023-10-31T04:41:27;95292.84;;;9.29;97.43
22647;BME280;11490;42.726;23.268;2023-10-31T04:43:52;95321.59;;;9.50;96.93
22647;BME280;11490;42.726;23.268;2023-10-31T04:46:18;95349.69;;;9.46;94.92
22647;BME280;11490;42.726;23.268;2023-10-31T04:48:43;95325.16;;;9.44;94.67
22647;BME280;11490;42.726;23.268;2023-10-31T04:51:08;95335.75;;;9.03;96.68
22647;BME280;11490;42.726;23.268;2023-10-31T04:53:34;95323.59;;;9.25;95.99
22647;BME280;11490;42.726;23.268;2023-10-31T04:56:00;95334.03;;;9.08;97.73
22647;BME280;11490;42.726;23.268;2023-10-31T04:58:26;95297.72;;;9.14;96.50
22647;BME280;11490;42.726;23.268;2023-10-31T05:00:51;95351.44;;;8.93;98.09
22647;BME280;11490;42.726;23.268;2023-10-31T05:03:16;95325.19;;;8.23;100.00
22647;BME280;11490;42.726;23.268;2023-10-31T05:05:43;95312.06;;;8.83;100.00
22647;BME280;11490;42.726;23.268;2023-10-31T05:08:08;95300.16;;;9.04;97.67
22647;BME280;11490;42.726;23.268;2023-10-31T05:10:34;95323.69;;;8.70;100.00
22647;BME280;11490;42.726;23.268;2023-10-31T05:13:01;95318.91;;;9.09;97.96
22647;BME280;11490;42.726;23.268;2023-10-31T05:15:27;95318.00;;;8.05;100.00
22647;BME280;11490;42.726;23.268;2023-10-31T05:17:53;95308.41;;;8.47;100.00
22647;BME280;11490;42.726;23.268;2023-10-31T05:20:18;95305.06;;;8.70;100.00
22647;BME280;11490;42.726;23.268;2023-10-31T05:22:44;95318.19;;;8.29;100.00
22647;BME280;11490;42.726;23.268;2023-10-31T05:25:10;95323.97;;;8.62;100.00
22647;BME280;11490;42.726;23.268;2023-10-31T05:27:35;95346.38;;;9.21;100.00
22647;BME280;11490;42.726;23.268;2023-10-31T05:30:00;95345.00;;;9.30;99.48
22647;BME280;11490;42.726;23.268;2023-10-31T05:32:26;95346.00;;;9.47;98.02
22647;BME280;11490;42.726;23.268;2023-10-31T05:34:51;95360.41;;;9.28;99.43
22647;BME280;11490;42.726;23.268;2023-10-31T05:37:17;95343.06;;;9.37;98.86
22647;BME280;11490;42.726;23.268;2023-10-31T05:39:42;95351.19;;;9.42;98.60
22647;BME280;11490;42.726;23.268;2023-10-31T05:42:07;95359.28;;;9.47;99.65
22647;BME280;11490;42.726;23.268;2023-10-31T05:44:33;95367.56;;;9.69;97.55
22647;BME280;11490;42.726;23.268;2023-10-31T05:46:58;95363.59;;;9.90;96.56
22647;BME280;11490;42.726;23.268;2023-10-31T05:49:24;95369.13;;;10.00;95.72
22647;BME280;11490;42.726;23.268;2023-10-31T05:51:52;95372.47;;;9.84;95.38
22647;BME280;11490;42.726;23.268;2023-10-31T05:54:18;95374.03;;;10.03;95.58
22647;BME280;11490;42.726;23.268;2023-10-31T05:56:43;95381.47;;;10.24;95.05
22647;BME280;11490;42.726;23.268;2023-10-31T05:59:10;95388.22;;;10.50;94.27
22647;BME280;11490;42.726;23.268;2023-10-31T06:01:36;95388.56;;;10.65;92.02
22647;BME280;11490;42.726;23.268;2023-10-31T06:04:01;95399.28;;;10.94;91.38
22647;BME280;11490;42.726;23.268;2023-10-31T06:06:27;95392.63;;;11.19;89.99
22647;BME280;11490;42.726;23.268;2023-10-31T06:08:52;95410.38;;;11.54;89.71
22647;BME280;11490;42.726;23.268;2023-10-31T06:11:19;95384.91;;;11.63;88.26
22647;BME280;11490;42.726;23.268;2023-10-31T06:13:44;95365.69;;;11.78;87.42
22647;BME280;11490;42.726;23.268;2023-10-31T06:16:10;95388.97;;;11.94;86.97
22647;BME280;11490;42.726;23.268;2023-10-31T06:18:37;95366.78;;;11.65;87.63
22647;BME280;11490;42.726;23.268;2023-10-31T06:21:03;95364.41;;;11.80;86.98
22647;BME280;11490;42.726;23.268;2023-10-31T06:23:29;95376.50;;;12.00;87.18
22647;BME280;11490;42.726;23.268;2023-10-31T06:25:54;95378.34;;;12.16;86.81
22647;BME280;11490;42.726;23.268;2023-10-31T06:28:20;95349.28;;;12.03;86.88
22647;BME280;11490;42.726;23.268;2023-10-31T06:30:51;95388.16;;;11.93;88.90
22647;BME280;11490;42.726;23.268;2023-10-31T06:33:16;95377.31;;;12.17;87.78
22647;BME280;11490;42.726;23.268;2023-10-31T06:35:42;95360.38;;;12.11;87.69
22647;BME280;11490;42.726;23.268;2023-10-31T06:38:07;95359.25;;;11.90;89.38
22647;BME280;11490;42.726;23.268;2023-10-31T06:40:33;95357.94;;;12.10;89.50
22647;BME280;11490;42.726;23.268;2023-10-31T06:42:58;95356.56;;;11.90;90.55
22647;BME280;11490;42.726;23.268;2023-10-31T06:45:24;95358.28;;;11.97;90.71
22647;BME280;11490;42.726;23.268;2023-10-31T06:47:49;95329.59;;;11.92;90.28
22647;BME280;11490;42.726;23.268;2023-10-31T06:50:15;95357.63;;;12.06;91.40
22647;BME280;11490;42.726;23.268;2023-10-31T06:52:40;95346.13;;;11.89;91.58
22647;BME280;11490;42.726;23.268;2023-10-31T06:55:06;95350.00;;;11.81;91.53
22647;BME280;11490;42.726;23.268;2023-10-31T06:57:32;95349.19;;;11.98;91.39
22647;BME280;11490;42.726;23.268;2023-10-31T06:59:57;95369.13;;;12.23;91.92
22647;BME280;11490;42.726;23.268;2023-10-31T07:02:23;95340.44;;;12.19;91.41
22647;BME280;11490;42.726;23.268;2023-10-31T07:04:49;95335.91;;;12.19;91.41
22647;BME280;11490;42.726;23.268;2023-10-31T07:07:17;95384.19;;;12.46;92.06
22647;BME280;11490;42.726;23.268;2023-10-31T07:09:46;95383.28;;;12.57;91.46
22647;BME280;11490;42.726;23.268;2023-10-31T07:12:12;95335.09;;;12.36;92.52
22647;BME280;11490;42.726;23.268;2023-10-31T07:14:45;95360.53;;;12.38;92.73
22647;BME280;11490;42.726;23.268;2023-10-31T07:17:11;95349.44;;;12.29;93.16
22647;BME280;11490;42.726;23.268;2023-10-31T07:19:49;95322.09;;;12.44;92.81
22647;BME280;11490;42.726;23.268;2023-10-31T07:22:15;95335.72;;;12.81;92.16
22647;BME280;11490;42.726;23.268;2023-10-31T07:24:40;95316.44;;;12.62;92.30
22647;BME280;11490;42.726;23.268;2023-10-31T07:27:06;95333.78;;;12.77;92.65
22647;BME280;11490;42.726;23.268;2023-10-31T07:29:31;95345.06;;;13.00;91.94
22647;BME280;11490;42.726;23.268;2023-10-31T07:32:13;95328.53;;;13.08;92.31
22647;BME280;11490;42.726;23.268;2023-10-31T07:34:42;95328.81;;;13.56;91.04
22647;BME280;11490;42.726;23.268;2023-10-31T07:37:14;95299.59;;;13.27;91.02
22647;BME280;11490;42.726;23.268;2023-10-31T07:39:42;95301.34;;;13.38;91.24
22647;BME280;11490;42.726;23.268;2023-10-31T07:42:08;95300.44;;;13.55;90.89
22647;BME280;11490;42.726;23.268;2023-10-31T07:44:34;95314.56;;;13.77;90.60
22647;BME280;11490;42.726;23.268;2023-10-31T07:46:59;95344.94;;;14.19;89.62
22647;BME280;11490;42.726;23.268;2023-10-31T07:49:28;95313.28;;;14.16;89.47
22647;BME280;11490;42.726;23.268;2023-10-31T07:51:53;95312.34;;;14.80;86.76
22647;BME280;11490;42.726;23.268;2023-10-31T07:54:22;95304.78;;;15.49;83.24
22647;BME280;11490;42.726;23.268;2023-10-31T07:56:47;95303.72;;;16.87;78.72
22647;BME280;11490;42.726;23.268;2023-10-31T07:59:13;95283.78;;;17.42;75.33
22647;BME280;11490;42.726;23.268;2023-10-31T08:01:41;95311.19;;;19.19;70.53
22647;BME280;11490;42.726;23.268;2023-10-31T08:04:07;95307.31;;;20.70;64.46
22647;BME280;11490;42.726;23.268;2023-10-31T08:06:32;95272.19;;;21.47;59.22
22647;BME280;11490;42.726;23.268;2023-10-31T08:08:58;95295.50;;;22.64;57.16
22647;BME280;11490;42.726;23.268;2023-10-31T08:11:23;95308.56;;;23.24;54.03
22647;BME280;11490;42.726;23.268;2023-10-31T08:13:49;95323.31;;;23.71;52.43
22647;BME280;11490;42.726;23.268;2023-10-31T08:16:18;95288.38;;;23.56;51.59
22647;BME280;11490;42.726;23.268;2023-10-31T08:18:45;95281.81;;;24.17;49.82
22647;BME280;11490;42.726;23.268;2023-10-31T08:21:11;95290.69;;;24.23;50.75
22647;BME280;11490;42.726;23.268;2023-10-31T08:23:37;95252.53;;;22.00;53.98
22647;BME280;11490;42.726;23.268;2023-10-31T08:26:02;95255.50;;;20.71;58.20
22647;BME280;11490;42.726;23.268;2023-10-31T08:28:28;95267.56;;;21.47;56.75
22647;BME280;11490;42.726;23.268;2023-10-31T08:30:54;95252.25;;;21.65;56.54
22647;BME280;11490;42.726;23.268;2023-10-31T08:33:19;95274.19;;;22.58;55.58
22647;BME280;11490;42.726;23.268;2023-10-31T08:35:44;95286.72;;;22.68;54.72
22647;BME280;11490;42.726;23.268;2023-10-31T08:38:10;95265.13;;;22.18;53.86
22647;BME280;11490;42.726;23.268;2023-10-31T08:40:35;95240.16;;;21.71;56.61
22647;BME280;11490;42.726;23.268;2023-10-31T08:43:01;95233.81;;;21.12;57.49
22647;BME280;11490;42.726;23.268;2023-10-31T08:45:29;95224.78;;;21.03;57.27
22647;BME280;11490;42.726;23.268;2023-10-31T08:47:54;95221.44;;;21.92;56.11
22647;BME280;11490;42.726;23.268;2023-10-31T08:50:20;95229.25;;;22.60;55.41
22647;BME280;11490;42.726;23.268;2023-10-31T08:52:45;95206.16;;;21.74;56.53
22647;BME280;11490;42.726;23.268;2023-10-31T08:55:11;95233.09;;;22.59;54.73
22647;BME280;11490;42.726;23.268;2023-10-31T08:57:36;95235.31;;;22.57;55.20
22647;BME280;11490;42.726;23.268;2023-10-31T09:00:02;95217.41;;;22.56;55.15
22647;BME280;11490;42.726;23.268;2023-10-31T09:02:30;95222.28;;;22.46;55.06
22647;BME280;11490;42.726;23.268;2023-10-31T09:04:55;95221.16;;;21.22;57.65
22647;BME280;11490;42.726;23.268;2023-10-31T09:07:21;95203.03;;;19.56;63.12
22647;BME280;11490;42.726;23.268;2023-10-31T09:09:46;95180.03;;;20.51;60.97
22647;BME280;11490;42.726;23.268;2023-10-31T09:12:11;95169.44;;;19.90;61.04
22647;BME280;11490;42.726;23.268;2023-10-31T09:14:47;95194.06;;;19.37;63.86
22647;BME280;11490;42.726;23.268;2023-10-31T09:17:16;95172.19;;;19.57;63.53
22647;BME280;11490;42.726;23.268;2023-10-31T09:19:47;95172.78;;;19.68;63.47
22647;BME280;11490;42.726;23.268;2023-10-31T09:22:23;95154.50;;;20.52;61.47
22647;BME280;11490;42.726;23.268;2023-10-31T09:24:52;95152.53;;;21.07;59.09
22647;BME280;11490;42.726;23.268;2023-10-31T09:27:18;95161.47;;;21.35;58.07
22647;BME280;11490;42.726;23.268;2023-10-31T09:29:43;95167.69;;;21.36;57.75
22647;BME280;11490;42.726;23.268;2023-10-31T09:32:09;95153.94;;;20.55;59.36
22647;BME280;11490;42.726;23.268;2023-10-31T09:34:34;95147.69;;;21.32;59.91
22647;BME280;11490;42.726;23.268;2023-10-31T09:36:59;95130.06;;;20.44;59.24
22647;BME280;11490;42.726;23.268;2023-10-31T09:39:25;95135.28;;;21.03;59.18
22647;BME280;11490;42.726;23.268;2023-10-31T09:41:50;95135.47;;;20.44;60.29
22647;BME280;11490;42.726;23.268;2023-10-31T09:44:16;95155.72;;;20.87;60.66
22647;BME280;11490;42.726;23.268;2023-10-31T09:46:41;95126.72;;;21.46;58.62
22647;BME280;11490;42.726;23.268;2023-10-31T09:49:08;95121.63;;;21.67;57.15
22647;BME280;11490;42.726;23.268;2023-10-31T09:51:36;95108.78;;;21.81;56.60
22647;BME280;11490;42.726;23.268;2023-10-31T09:54:02;95121.91;;;21.87;56.69
22647;BME280;11490;42.726;23.268;2023-10-31T09:56:29;95123.97;;;22.04;56.99
22647;BME280;11490;42.726;23.268;2023-10-31T09:59:00;95124.94;;;21.86;58.18
22647;BME280;11490;42.726;23.268;2023-10-31T10:01:26;95101.03;;;21.43;57.28
22647;BME280;11490;42.726;23.268;2023-10-31T10:03:52;95102.81;;;21.48;56.39
22647;BME280;11490;42.726;23.268;2023-10-31T10:06:20;95089.69;;;21.41;58.12
22647;BME280;11490;42.726;23.268;2023-10-31T10:08:46;95091.22;;;21.56;57.31
22647;BME280;11490;42.726;23.268;2023-10-31T10:11:12;95065.69;;;21.35;58.05
22647;BME280;11490;42.726;23.268;2023-10-31T10:13:37;95041.19;;;21.04;58.72
22647;BME280;11490;42.726;23.268;2023-10-31T10:16:03;95062.41;;;21.24;57.85
22647;BME280;11490;42.726;23.268;2023-10-31T10:18:33;95069.41;;;20.67;58.84
22647;BME280;11490;42.726;23.268;2023-10-31T10:21:07;95083.22;;;20.79;58.75
22647;BME280;11490;42.726;23.268;2023-10-31T10:23:33;95064.47;;;20.83;60.42
22647;BME280;11490;42.726;23.268;2023-10-31T10:26:01;95067.13;;;20.96;57.92
22647;BME280;11490;42.726;23.268;2023-10-31T10:28:27;95063.84;;;20.36;59.49
22647;BME280;11490;42.726;23.268;2023-10-31T10:30:54;95049.53;;;19.76;62.05
22647;BME280;11490;42.726;23.268;2023-10-31T10:33:20;95066.31;;;20.19;60.55
22647;BME280;11490;42.726;23.268;2023-10-31T10:35:46;95052.56;;;20.15;60.63
22647;BME280;11490;42.726;23.268;2023-10-31T10:38:16;95052.34;;;20.53;60.41
22647;BME280;11490;42.726;23.268;2023-10-31T10:40:47;95032.09;;;20.09;59.89
22647;BME280;11490;42.726;23.268;2023-10-31T10:45:44;95015.75;;;20.42;60.12
22647;BME280;11490;42.726;23.268;2023-10-31T10:48:15;95011.81;;;20.48;60.43
22647;BME280;11490;42.726;23.268;2023-10-31T10:50:43;95011.63;;;20.80;58.59
22647;BME280;11490;42.726;23.268;2023-10-31T10:55:45;95007.03;;;20.81;58.13
22647;BME280;11490;42.726;23.268;2023-10-31T10:58:20;94999.44;;;20.91;57.51
22647;BME280;11490;42.726;23.268;2023-10-31T11:00:48;95000.06;;;20.88;57.33
22647;BME280;11490;42.726;23.268;2023-10-31T11:03:16;95007.31;;;20.79;56.44
22647;BME280;11490;42.726;23.268;2023-10-31T11:05:42;94977.13;;;20.72;56.93
22647;BME280;11490;42.726;23.268;2023-10-31T11:08:08;94985.41;;;20.67;56.24
22647;BME280;11490;42.726;23.268;2023-10-31T11:10:34;94987.69;;;20.60;57.05
22647;BME280;11490;42.726;23.268;2023-10-31T11:13:00;94973.00;;;20.39;57.76
22647;BME280;11490;42.726;23.268;2023-10-31T11:15:27;94968.09;;;20.27;57.46
22647;BME280;11490;42.726;23.268;2023-10-31T11:17:52;94970.13;;;20.35;56.58
22647;BME280;11490;42.726;23.268;2023-10-31T11:20:20;94963.47;;;20.41;56.02
22647;BME280;11490;42.726;23.268;2023-10-31T11:22:46;94952.94;;;20.40;56.55
22647;BME280;11490;42.726;23.268;2023-10-31T11:25:17;94940.00;;;20.36;55.33
22647;BME280;11490;42.726;23.268;2023-10-31T11:27:45;94949.25;;;20.35;56.64
22647;BME280;11490;42.726;23.268;2023-10-31T11:30:20;94945.81;;;20.44;56.33
22647;BME280;11490;42.726;23.268;2023-10-31T11:32:51;94910.19;;;20.36;56.80
22647;BME280;11490;42.726;23.268;2023-10-31T11:35:17;94941.75;;;20.55;52.12
22647;BME280;11490;42.726;23.268;2023-10-31T11:37:43;94916.34;;;20.28;53.75
22647;BME280;11490;42.726;23.268;2023-10-31T11:40:22;94930.78;;;20.38;51.87
22647;BME280;11490;42.726;23.268;2023-10-31T11:43:12;94928.34;;;20.50;50.30
22647;BME280;11490;42.726;23.268;2023-10-31T11:45:41;94912.09;;;20.50;51.88
22647;BME280;11490;42.726;23.268;2023-10-31T11:48:09;94921.69;;;20.56;51.61
22647;BME280;11490;42.726;23.268;2023-10-31T11:50:36;94936.97;;;20.52;51.00
22647;BME280;11490;42.726;23.268;2023-10-31T11:55:33;94908.00;;;20.61;50.54
22647;BME280;11490;42.726;23.268;2023-10-31T11:58:19;94924.91;;;20.58;50.43
22647;BME280;11490;42.726;23.268;2023-10-31T12:00:47;94927.09;;;20.56;50.25
22647;BME280;11490;42.726;23.268;2023-10-31T12:03:15;94918.53;;;20.62;50.10
22647;BME280;11490;42.726;23.268;2023-10-31T12:05:51;94907.78;;;20.71;49.28
22647;BME280;11490;42.726;23.268;2023-10-31T12:08:25;94889.09;;;20.69;50.75
22647;BME280;11490;42.726;23.268;2023-10-31T12:10:50;94884.84;;;20.77;50.25
22647;BME280;11490;42.726;23.268;2023-10-31T12:13:15;94859.97;;;20.53;51.88
22647;BME280;11490;42.726;23.268;2023-10-31T12:15:51;94888.94;;;20.66;51.03
22647;BME280;11490;42.726;23.268;2023-10-31T12:18:18;94895.06;;;20.80;50.13
22647;BME280;11490;42.726;23.268;2023-10-31T12:20:47;94899.63;;;20.93;50.32
22647;BME280;11490;42.726;23.268;2023-10-31T12:23:14;94847.19;;;20.75;50.60
22647;BME280;11490;42.726;23.268;2023-10-31T12:25:49;94868.19;;;20.92;50.82
22647;BME280;11490;42.726;23.268;2023-10-31T12:28:22;94879.03;;;20.92;47.31
22647;BME280;11490;42.726;23.268;2023-10-31T12:30:50;94876.56;;;21.04;46.93
22647;BME280;11490;42.726;23.268;2023-10-31T12:33:16;94876.41;;;21.09;46.20
22647;BME280;11490;42.726;23.268;2023-10-31T12:35:43;94863.13;;;20.99;46.64
22647;BME280;11490;42.726;23.268;2023-10-31T12:38:12;94846.72;;;21.04;46.03
22647;BME280;11490;42.726;23.268;2023-10-31T12:40:40;94857.50;;;21.18;47.91
22647;BME280;11490;42.726;23.268;2023-10-31T12:43:06;94845.63;;;21.14;46.62
22647;BME280;11490;42.726;23.268;2023-10-31T12:45:31;94830.81;;;21.11;47.86
22647;BME280;11490;42.726;23.268;2023-10-31T12:48:01;94828.59;;;21.13;46.72
22647;BME280;11490;42.726;23.268;2023-10-31T12:50:30;94850.28;;;21.13;47.52
22647;BME280;11490;42.726;23.268;2023-10-31T12:52:56;94846.09;;;21.07;47.19
22647;BME280;11490;42.726;23.268;2023-10-31T12:55:27;94847.53;;;21.05;47.95
22647;BME280;11490;42.726;23.268;2023-10-31T12:57:56;94845.13;;;21.03;49.46